GVAC/SID METAR and TAF weather

Enter ICAO airport designator
Station Type Date Time Source
GVAC METAR 2022/06/26 08:00 UTC NOAA

GVAC 260800Z 04016KT 9999 SCT013 22/19 Q1014 NOSIG


Station Type Date Time Source
GVAC Decoded METAR 2022/06/26 08:00 UTC NOAA

Sal, Cape Verde (GVAC) 16-44N 022-57W 55M
Jun 26, 2022 - 04:00 AM EDT / 2022.06.26 0800 UTC
Wind: from the NE (040 degrees) at 18 MPH (16 KT):0
Visibility: greater than 7 mile(s):0
Sky conditions: partly cloudy
Temperature: 71 F (22 C)
Dew Point: 66 F (19 C)
Relative Humidity: 83%
Pressure (altimeter): 29.94 in. Hg (1014 hPa)
ob: GVAC 260800Z 04016KT 9999 SCT013 22/19 Q1014 NOSIG
cycle: 8

Station Type Date Time Source
GVAC TAF 2022/06/26 06:58 UTC NOAA

TAF GVAC 260500Z 2606/2712 04016KT 9999 SCT014 PROB40
TEMPO 2612/2618 BKN014

Example: see airport list